createdAt,value
2018-11-02T00:00:06.230Z,9.70
2018-11-02T00:02:35.032Z,9.70
2018-11-02T00:05:03.872Z,9.60
2018-11-02T00:07:47.561Z,9.60
2018-11-02T00:10:32.685Z,9.50
2018-11-02T00:13:01.435Z,9.40
2018-11-02T00:15:30.189Z,9.40
2018-11-02T00:17:59.899Z,9.40
2018-11-02T00:20:28.817Z,9.50
2018-11-02T00:22:57.673Z,9.50
2018-11-02T00:25:26.564Z,9.40
2018-11-02T00:27:56.272Z,9.30
2018-11-02T00:30:25.141Z,9.30
2018-11-02T00:32:53.925Z,9.30
2018-11-02T00:35:22.789Z,9.10
2018-11-02T00:37:51.550Z,9.20
2018-11-02T00:40:20.279Z,9.20
2018-11-02T00:42:49.027Z,9.20
2018-11-02T00:45:17.767Z,9.20
2018-11-02T00:47:53.061Z,9.20
2018-11-02T00:50:21.796Z,9.10
2018-11-02T00:52:50.593Z,9.10
2018-11-02T00:55:19.568Z,9.00
2018-11-02T00:57:48.343Z,9.00
2018-11-02T01:00:17.811Z,9.00
2018-11-02T01:02:46.607Z,8.90
2018-11-02T01:05:15.385Z,8.90
2018-11-02T01:07:44.123Z,8.90
2018-11-02T01:10:12.884Z,8.90
2018-11-02T01:12:41.872Z,8.90
2018-11-02T01:15:11.435Z,8.90
2018-11-02T01:17:40.591Z,8.90
2018-11-02T01:20:10.256Z,8.90
2018-11-02T01:22:39.267Z,8.90
2018-11-02T01:25:08.398Z,8.90
2018-11-02T01:27:37.831Z,9.00
2018-11-02T01:30:06.641Z,8.90
2018-11-02T01:32:35.407Z,9.00
2018-11-02T01:35:04.196Z,8.90
2018-11-02T01:37:32.959Z,8.90
2018-11-02T01:40:01.758Z,8.90
2018-11-02T01:42:30.497Z,8.90
2018-11-02T01:44:59.236Z,8.90
2018-11-02T01:47:27.961Z,8.90
2018-11-02T01:49:56.691Z,8.90
2018-11-02T01:52:25.511Z,8.80
2018-11-02T01:54:54.255Z,8.80
2018-11-02T01:57:23.067Z,8.80
2018-11-02T02:02:27.303Z,8.80
2018-11-02T02:04:56.136Z,8.70
2018-11-02T02:07:24.888Z,8.70
2018-11-02T02:09:53.669Z,8.70
2018-11-02T02:12:22.428Z,8.70
2018-11-02T02:14:51.173Z,8.70
2018-11-02T02:17:19.955Z,8.70
2018-11-02T02:19:48.663Z,8.60
2018-11-02T02:22:17.424Z,8.50
2018-11-02T02:24:46.148Z,8.60
2018-11-02T02:27:14.928Z,8.60
2018-11-02T02:29:43.737Z,8.60
2018-11-02T02:32:12.492Z,8.50
2018-11-02T02:34:41.387Z,8.50
2018-11-02T02:37:10.139Z,8.50
2018-11-02T02:39:38.818Z,8.50
2018-11-02T02:42:07.565Z,8.40
2018-11-02T02:44:36.316Z,8.40
2018-11-02T02:47:05.115Z,8.30
2018-11-02T02:49:34.743Z,8.30
2018-11-02T02:52:03.429Z,8.40
2018-11-02T02:54:32.358Z,8.30
2018-11-02T02:57:01.131Z,8.40
2018-11-02T02:59:29.840Z,8.40
2018-11-02T03:01:58.655Z,8.40
2018-11-02T03:04:27.417Z,8.40
2018-11-02T03:06:56.145Z,8.40
2018-11-02T03:09:24.903Z,8.40
2018-11-02T03:11:53.651Z,8.30
2018-11-02T03:14:22.508Z,8.30
2018-11-02T03:16:51.256Z,8.30
2018-11-02T03:19:19.990Z,8.30
2018-11-02T03:21:48.863Z,8.30
2018-11-02T03:24:17.694Z,8.30
2018-11-02T03:26:46.616Z,8.30
2018-11-02T03:29:15.491Z,8.20
2018-11-02T03:31:44.469Z,8.30
2018-11-02T03:34:13.967Z,8.30
2018-11-02T03:36:43.373Z,8.30
2018-11-02T03:39:12.929Z,8.30
2018-11-02T03:41:42.764Z,8.30
2018-11-02T03:44:12.373Z,8.30
2018-11-02T03:46:41.424Z,8.30
2018-11-02T03:49:10.132Z,8.30
2018-11-02T03:51:38.841Z,8.30
2018-11-02T03:54:07.804Z,8.30
2018-11-02T03:56:36.547Z,8.30
2018-11-02T03:59:05.224Z,8.20
2018-11-02T04:01:34.068Z,8.30
2018-11-02T04:04:02.812Z,8.30
2018-11-02T04:06:31.532Z,8.30
2018-11-02T04:09:00.269Z,8.30
2018-11-02T04:11:29.020Z,8.40
2018-11-02T04:13:57.771Z,8.40
2018-11-02T04:16:26.500Z,8.30
2018-11-02T04:18:56.262Z,8.40
2018-11-02T04:21:25.032Z,8.30
2018-11-02T04:23:53.767Z,8.30
2018-11-02T04:26:22.548Z,8.30
2018-11-02T04:28:51.263Z,8.30
2018-11-02T04:31:20.008Z,8.30
2018-11-02T04:33:48.930Z,8.30
2018-11-02T04:36:17.697Z,8.20
2018-11-02T04:38:46.414Z,8.20
2018-11-02T04:41:15.135Z,8.20
2018-11-02T04:43:43.873Z,8.20
2018-11-02T04:46:12.682Z,8.30
2018-11-02T04:48:41.365Z,8.20
2018-11-02T04:51:10.168Z,8.30
2018-11-02T04:53:38.900Z,8.20
2018-11-02T04:56:07.620Z,8.30
2018-11-02T04:58:36.572Z,8.20
2018-11-02T05:01:05.399Z,8.20
2018-11-02T05:03:34.123Z,8.20
2018-11-02T05:06:02.860Z,8.10
2018-11-02T05:08:31.563Z,8.20
2018-11-02T05:11:00.339Z,8.10
2018-11-02T05:13:29.030Z,8.20
2018-11-02T05:15:57.803Z,8.10
2018-11-02T05:18:26.515Z,8.00
2018-11-02T05:20:55.323Z,7.90
2018-11-02T05:23:24.116Z,8.00
2018-11-02T05:25:52.890Z,8.00
2018-11-02T05:28:21.645Z,8.00
2018-11-02T05:30:50.350Z,8.10
2018-11-02T05:33:19.096Z,8.10
2018-11-02T05:35:47.820Z,8.20
2018-11-02T05:38:16.527Z,8.10
2018-11-02T05:40:45.252Z,8.10
2018-11-02T05:43:13.988Z,8.10
2018-11-02T05:45:42.720Z,8.10
2018-11-02T05:48:11.536Z,8.00
2018-11-02T05:50:40.331Z,8.00
2018-11-02T05:53:09.181Z,8.00
2018-11-02T05:55:37.878Z,8.00
2018-11-02T05:58:06.632Z,8.00
2018-11-02T06:00:35.386Z,8.00
2018-11-02T06:03:04.160Z,8.10
2018-11-02T06:05:32.859Z,8.10
2018-11-02T06:08:01.762Z,8.10
2018-11-02T06:10:30.339Z,8.20
2018-11-02T06:12:59.083Z,8.10
2018-11-02T06:15:27.880Z,8.20
2018-11-02T06:17:56.610Z,8.10
2018-11-02T06:20:25.524Z,8.10
2018-11-02T06:22:54.425Z,8.10
2018-11-02T06:25:23.743Z,8.10
2018-11-02T06:27:52.916Z,8.20
2018-11-02T06:30:22.254Z,8.10
2018-11-02T06:32:51.062Z,8.20
2018-11-02T06:35:19.638Z,8.30
2018-11-02T06:37:48.388Z,8.30
2018-11-02T06:40:17.319Z,8.40
2018-11-02T06:42:49.159Z,8.40
2018-11-02T06:45:18.652Z,8.50
2018-11-02T06:47:47.872Z,8.60
2018-11-02T06:50:16.773Z,8.70
2018-11-02T06:52:54.467Z,8.70
2018-11-02T06:55:23.773Z,8.70
2018-11-02T06:57:53.858Z,8.70
2018-11-02T07:00:24.300Z,8.60
2018-11-02T07:02:52.972Z,8.60
2018-11-02T07:05:21.832Z,8.60
2018-11-02T07:07:50.823Z,8.70
2018-11-02T07:10:20.503Z,8.70
2018-11-02T07:12:49.467Z,8.70
2018-11-02T07:15:18.420Z,8.70
2018-11-02T07:17:47.203Z,8.70
2018-11-02T07:20:15.918Z,8.80
2018-11-02T07:22:44.785Z,8.80
2018-11-02T07:25:13.688Z,8.90
2018-11-02T07:27:42.341Z,8.90
2018-11-02T07:30:11.708Z,8.80
2018-11-02T07:32:40.818Z,8.90
2018-11-02T07:35:10.329Z,9.00
2018-11-02T07:37:39.209Z,9.00
2018-11-02T07:40:10.175Z,9.10
2018-11-02T07:42:39.368Z,9.10
2018-11-02T07:45:08.632Z,9.20
2018-11-02T07:47:37.591Z,9.30
2018-11-02T07:50:08.425Z,9.40
2018-11-02T07:52:37.192Z,9.50
2018-11-02T07:55:08.122Z,9.90
2018-11-02T07:57:37.077Z,10.50
2018-11-02T08:00:11.350Z,11.30
2018-11-02T08:02:44.348Z,11.80
2018-11-02T08:05:14.875Z,11.90
2018-11-02T08:07:44.891Z,12.30
2018-11-02T08:10:13.839Z,12.60
2018-11-02T08:12:43.230Z,12.90
2018-11-02T08:15:12.869Z,13.10
2018-11-02T08:17:44.972Z,13.30
2018-11-02T08:20:14.276Z,13.50
2018-11-02T08:22:43.649Z,13.60
2018-11-02T08:25:12.931Z,13.70
2018-11-02T08:27:48.136Z,13.80
2018-11-02T08:30:17.528Z,13.90
2018-11-02T08:32:46.371Z,13.90
2018-11-02T08:35:15.141Z,14.10
2018-11-02T08:37:43.862Z,14.20
2018-11-02T08:40:13.496Z,14.40
2018-11-02T08:42:42.696Z,14.50
2018-11-02T08:45:11.769Z,14.50
2018-11-02T08:47:40.534Z,14.60
2018-11-02T08:50:11.715Z,14.60
2018-11-02T08:52:40.668Z,14.80
2018-11-02T08:55:10.599Z,14.70
2018-11-02T09:00:23.350Z,14.60
2018-11-02T09:02:52.092Z,14.50
2018-11-02T09:05:20.821Z,14.60
2018-11-02T09:07:49.499Z,14.60
2018-11-02T09:10:18.252Z,14.60
2018-11-02T09:12:47.293Z,14.60
2018-11-02T09:15:16.073Z,14.80
2018-11-02T09:17:44.973Z,14.90
2018-11-02T09:20:18.394Z,14.90
2018-11-02T09:25:41.545Z,15.00
2018-11-02T09:28:12.120Z,15.00
2018-11-02T09:30:42.395Z,14.90
2018-11-02T09:33:20.632Z,14.80
2018-11-02T09:38:45.279Z,15.10
2018-11-02T09:41:14.069Z,15.30
2018-11-02T09:43:43.670Z,15.40
2018-11-02T09:46:19.133Z,15.40
2018-11-02T09:48:48.392Z,15.50
2018-11-02T09:51:39.337Z,15.80
2018-11-02T09:54:09.729Z,15.90
2018-11-02T09:56:40.825Z,16.00
2018-11-02T09:59:10.253Z,16.20
2018-11-02T10:01:44.352Z,16.00
2018-11-02T10:04:13.736Z,15.80
2018-11-02T10:06:42.560Z,15.90
2018-11-02T10:09:18.163Z,16.10
2018-11-02T10:11:46.948Z,16.10
2018-11-02T10:14:15.745Z,16.40
2018-11-02T10:19:45.169Z,16.60
2018-11-02T10:22:14.169Z,16.70
2018-11-02T10:24:43.668Z,16.60
2018-11-02T10:27:13.921Z,16.50
2018-11-02T10:29:43.737Z,16.70
2018-11-02T10:32:14.505Z,16.60
2018-11-02T10:34:44.816Z,16.60
2018-11-02T10:37:15.872Z,16.70
2018-11-02T10:39:45.040Z,16.80
2018-11-02T10:42:14.172Z,16.90
2018-11-02T10:44:45.667Z,16.80
2018-11-02T10:47:16.084Z,16.80
2018-11-02T10:49:45.691Z,16.80
2018-11-02T10:52:14.543Z,16.80
2018-11-02T10:54:46.766Z,17.00
2018-11-02T10:57:38.564Z,17.00
2018-11-02T11:00:16.468Z,17.20
2018-11-02T11:03:01.483Z,17.30
2018-11-02T11:05:38.776Z,16.90
2018-11-02T11:08:09.304Z,16.90
2018-11-02T11:10:39.885Z,16.80
2018-11-02T11:13:10.413Z,16.90
2018-11-02T11:15:39.017Z,16.80
2018-11-02T11:18:11.408Z,16.80
2018-11-02T11:23:46.217Z,16.90
2018-11-02T11:30:13.359Z,16.60
2018-11-02T11:32:43.372Z,16.50
2018-11-02T11:35:17.405Z,16.60
2018-11-02T11:37:46.622Z,16.60
2018-11-02T11:40:20.311Z,16.50
2018-11-02T11:43:06.777Z,16.50
2018-11-02T11:45:46.582Z,16.20
2018-11-02T11:52:01.528Z,16.10
2018-11-02T11:54:39.300Z,15.70
2018-11-02T11:57:16.266Z,15.40
2018-11-02T12:01:37.643Z,15.50
2018-11-02T12:04:13.667Z,15.50
2018-11-02T12:06:43.244Z,15.60
2018-11-02T12:15:31.523Z,15.40
2018-11-02T12:18:00.324Z,15.70
2018-11-02T12:20:32.577Z,15.40
2018-11-02T12:23:02.613Z,15.20
2018-11-02T12:25:31.613Z,14.90
2018-11-02T12:28:03.634Z,14.70
2018-11-02T12:30:32.953Z,14.70
2018-11-02T12:33:06.920Z,14.60
2018-11-02T12:35:44.169Z,14.40
2018-11-02T12:38:14.015Z,14.30
2018-11-02T12:40:48.665Z,14.20
2018-11-02T12:43:28.385Z,14.10
2018-11-02T12:46:03.783Z,14.10
2018-11-02T12:48:35.434Z,13.90
2018-11-02T12:51:07.410Z,14.00
2018-11-02T12:53:37.393Z,13.90
2018-11-02T12:56:10.024Z,13.90
2018-11-02T12:58:40.566Z,13.90
2018-11-02T13:01:09.972Z,13.80
2018-11-02T13:03:38.897Z,13.80
2018-11-02T13:06:07.835Z,13.80
2018-11-02T13:08:36.758Z,13.80
2018-11-02T13:11:05.669Z,13.80
2018-11-02T13:13:34.852Z,13.70
2018-11-02T13:16:03.736Z,13.80
2018-11-02T13:18:32.761Z,13.90
2018-11-02T13:21:01.935Z,14.30
2018-11-02T13:23:32.845Z,14.60
2018-11-02T13:26:01.697Z,14.80
2018-11-02T13:28:30.466Z,15.00
2018-11-02T13:30:59.512Z,15.10
2018-11-02T13:33:28.241Z,15.10
2018-11-02T13:36:09.094Z,15.20
2018-11-02T13:41:21.490Z,15.20
2018-11-02T13:44:03.993Z,15.30
2018-11-02T13:46:40.047Z,15.30
2018-11-02T13:49:15.406Z,15.40
2018-11-02T13:54:25.591Z,15.20
2018-11-02T13:56:55.177Z,15.40
2018-11-02T13:59:24.512Z,15.40
2018-11-02T14:01:53.629Z,15.50
2018-11-02T14:04:22.553Z,15.40
2018-11-02T14:06:51.890Z,14.90
2018-11-02T14:09:20.967Z,14.60
2018-11-02T14:11:49.891Z,14.50
2018-11-02T14:14:19.406Z,14.30
2018-11-02T14:16:50.315Z,14.20
2018-11-02T14:19:21.642Z,14.20
2018-11-02T14:21:50.836Z,14.30
2018-11-02T14:24:19.666Z,14.50
2018-11-02T14:29:39.361Z,14.90
2018-11-02T14:32:11.707Z,14.90
2018-11-02T14:34:46.816Z,14.80
2018-11-02T14:37:17.422Z,14.70
2018-11-02T14:39:48.652Z,14.50
2018-11-02T14:42:18.198Z,14.40
2018-11-02T14:45:02.271Z,14.30
2018-11-02T14:47:31.630Z,14.30
2018-11-02T14:50:02.445Z,14.20
2018-11-02T14:52:38.909Z,14.20
2018-11-02T14:55:16.541Z,14.10
2018-11-02T14:57:45.494Z,14.10
2018-11-02T15:00:14.394Z,14.00
2018-11-02T15:05:18.286Z,14.00
2018-11-02T15:08:15.085Z,14.00
2018-11-02T15:10:46.953Z,13.90
2018-11-02T15:13:16.218Z,13.80
2018-11-02T15:15:59.847Z,13.70
2018-11-02T15:18:35.632Z,13.60
2018-11-02T15:21:10.722Z,13.50
2018-11-02T15:23:39.541Z,13.40
2018-11-02T15:26:13.980Z,13.40
2018-11-02T15:28:54.279Z,13.30
2018-11-02T15:31:24.277Z,13.30
2018-11-02T15:33:57.642Z,13.20
2018-11-02T15:36:31.015Z,13.10
2018-11-02T15:39:02.571Z,13.10
2018-11-02T15:41:32.788Z,13.00
2018-11-02T15:44:10.692Z,13.00
2018-11-02T15:46:40.668Z,12.90
2018-11-02T15:49:11.943Z,12.90
2018-11-02T15:51:51.784Z,12.90
2018-11-02T15:54:20.611Z,12.80
2018-11-02T15:56:50.760Z,12.80
2018-11-02T15:59:20.785Z,12.70
2018-11-02T16:01:51.058Z,12.80
2018-11-02T16:04:26.067Z,12.80
2018-11-02T16:06:55.680Z,12.70
2018-11-02T16:09:30.269Z,12.70
2018-11-02T16:14:46.689Z,12.60
2018-11-02T16:17:17.310Z,12.50
2018-11-02T16:19:48.528Z,12.40
2018-11-02T16:22:18.381Z,12.40
2018-11-02T16:24:47.945Z,12.40
2018-11-02T16:27:17.420Z,12.40
2018-11-02T16:29:46.768Z,12.30
2018-11-02T16:32:16.713Z,12.40
2018-11-02T16:34:47.849Z,12.30
2018-11-02T16:37:17.321Z,12.30
2018-11-02T16:39:46.459Z,12.30
2018-11-02T16:42:17.243Z,12.20
2018-11-02T16:44:46.357Z,12.20
2018-11-02T16:47:15.184Z,12.20
2018-11-02T16:49:44.064Z,12.20
2018-11-02T16:52:13.003Z,12.20
2018-11-02T16:54:44.987Z,12.10
2018-11-02T16:57:13.792Z,12.10
2018-11-02T16:59:42.562Z,12.00
2018-11-02T17:02:11.736Z,12.00
2018-11-02T17:04:41.179Z,12.00
2018-11-02T17:07:16.801Z,12.00
2018-11-02T17:09:53.859Z,11.90
2018-11-02T17:12:22.915Z,12.00
2018-11-02T17:14:53.918Z,12.00
2018-11-02T17:17:23.120Z,12.00
2018-11-02T17:19:51.936Z,12.00
2018-11-02T17:22:20.839Z,12.00
2018-11-02T17:30:19.740Z,11.90
2018-11-02T17:35:41.903Z,11.80
2018-11-02T17:41:09.903Z,11.70
2018-11-02T17:43:48.772Z,11.70
2018-11-02T17:49:06.900Z,11.70
2018-11-02T17:51:45.964Z,11.60
2018-11-02T17:54:31.893Z,11.60
2018-11-02T17:57:07.565Z,11.60
2018-11-02T18:07:45.757Z,11.50
2018-11-02T18:10:17.757Z,11.50
2018-11-02T18:13:03.752Z,11.50
2018-11-02T18:16:05.752Z,11.40
2018-11-02T18:22:05.870Z,11.50
2018-11-02T18:27:22.797Z,11.40
2018-11-02T18:36:07.631Z,11.40
2018-11-02T18:50:28.266Z,11.20
2018-11-02T18:53:06.639Z,11.20
2018-11-02T19:01:40.345Z,11.10
2018-11-02T19:11:19.224Z,11.00
2018-11-02T19:16:45.981Z,11.00
2018-11-02T19:38:47.584Z,10.70
2018-11-02T19:41:18.460Z,11.30
2018-11-02T19:43:50.530Z,10.70
2018-11-02T19:46:20.744Z,10.70
2018-11-02T19:51:31.875Z,10.80
2018-11-02T19:54:03.277Z,10.80
2018-11-02T19:59:20.805Z,10.80
2018-11-02T20:01:49.916Z,10.80
2018-11-02T20:04:21.018Z,10.70
2018-11-02T20:06:52.701Z,10.70
2018-11-02T20:12:18.342Z,10.70
2018-11-02T20:14:50.599Z,10.70
2018-11-02T20:17:21.490Z,10.70
2018-11-02T20:19:59.503Z,10.60
2018-11-02T20:22:30.920Z,10.60
2018-11-02T20:25:01.541Z,10.50
2018-11-02T20:30:28.914Z,10.50
2018-11-02T20:35:32.925Z,10.40
2018-11-02T20:38:01.665Z,10.40
2018-11-02T20:40:30.426Z,10.40
2018-11-02T20:42:59.345Z,10.30
2018-11-02T20:45:28.414Z,10.30
2018-11-02T20:48:00.381Z,10.30
2018-11-02T20:50:29.251Z,10.30
2018-11-02T20:52:58.033Z,10.30
2018-11-02T20:55:26.828Z,10.30
2018-11-02T20:57:56.079Z,10.30
2018-11-02T21:00:25.453Z,10.20
2018-11-02T21:02:54.495Z,10.20
2018-11-02T21:08:03.570Z,10.20
2018-11-02T21:10:41.321Z,10.20
2018-11-02T21:13:29.051Z,10.10
2018-11-02T21:16:04.205Z,10.10
2018-11-02T21:21:30.543Z,10.10
2018-11-02T21:24:02.894Z,10.10
2018-11-02T21:26:32.160Z,10.10
2018-11-02T21:29:04.775Z,10.00
2018-11-02T21:31:36.345Z,10.00
2018-11-02T21:34:08.266Z,10.00
2018-11-02T21:39:21.868Z,9.90
2018-11-02T21:42:03.863Z,9.80
2018-11-02T21:44:32.791Z,9.80
2018-11-02T21:47:05.601Z,9.80
2018-11-02T21:49:34.472Z,9.80
2018-11-02T21:52:03.301Z,9.80
2018-11-02T21:54:32.074Z,9.90
2018-11-02T21:57:01.021Z,9.90
2018-11-02T21:59:29.799Z,9.80
2018-11-02T22:02:08.513Z,9.80
2018-11-02T22:04:37.417Z,9.70
2018-11-02T22:07:06.308Z,9.70
2018-11-02T22:09:41.528Z,9.70
2018-11-02T22:14:46.140Z,9.60
2018-11-02T22:17:16.667Z,9.60
2018-11-02T22:19:45.405Z,9.60
2018-11-02T22:22:14.178Z,9.60
2018-11-02T22:24:46.346Z,9.50
2018-11-02T22:27:15.280Z,9.60
2018-11-02T22:29:43.960Z,9.50
2018-11-02T22:32:12.902Z,9.40
2018-11-02T22:34:41.705Z,9.40
2018-11-02T22:37:10.500Z,9.40
2018-11-02T22:39:39.211Z,9.30
2018-11-02T22:42:08.059Z,9.30
2018-11-02T22:44:36.877Z,9.40
2018-11-02T22:47:05.695Z,9.40
2018-11-02T22:49:34.493Z,9.40
2018-11-02T22:52:03.387Z,9.30
2018-11-02T22:54:32.311Z,9.30
2018-11-02T22:57:01.065Z,9.30
2018-11-02T22:59:29.846Z,9.30
2018-11-02T23:01:58.549Z,9.30
2018-11-02T23:04:27.317Z,9.20
2018-11-02T23:06:56.077Z,9.20
2018-11-02T23:09:24.948Z,9.20
2018-11-02T23:11:53.736Z,9.20
2018-11-02T23:14:22.636Z,9.20
2018-11-02T23:16:51.417Z,9.10
2018-11-02T23:19:20.227Z,9.20
2018-11-02T23:21:49.064Z,9.10
2018-11-02T23:24:18.396Z,9.20
2018-11-02T23:26:47.170Z,9.20
2018-11-02T23:29:16.000Z,9.10
2018-11-02T23:31:44.669Z,9.10
2018-11-02T23:34:13.470Z,9.20
2018-11-02T23:36:42.273Z,9.20
2018-11-02T23:39:11.053Z,9.20
2018-11-02T23:41:40.038Z,9.20
2018-11-02T23:44:08.845Z,9.20
2018-11-02T23:46:37.747Z,9.10
2018-11-02T23:49:06.581Z,9.10
2018-11-02T23:51:35.381Z,9.10
2018-11-02T23:54:04.262Z,9.10
2018-11-02T23:56:33.014Z,9.00
2018-11-02T23:59:02.080Z,9.10
